sensor_id;sensor_type;location;lat;lon;timestamp;P1;durP1;ratioP1;P2;durP2;ratioP2
36359;SDS011;22388;52.432;20.662;2023-05-18T00:03:17;13.85;;;2.72;;
36359;SDS011;22388;52.432;20.662;2023-05-18T00:06:42;13.48;;;2.47;;
36359;SDS011;22388;52.432;20.662;2023-05-18T00:10:07;12.52;;;2.10;;
36359;SDS011;22388;52.432;20.662;2023-05-18T00:13:31;8.25;;;2.15;;
36359;SDS011;22388;52.432;20.662;2023-05-18T00:16:55;15.13;;;2.35;;
36359;SDS011;22388;52.432;20.662;2023-05-18T00:20:21;14.07;;;1.90;;
36359;SDS011;22388;52.432;20.662;2023-05-18T00:23:46;10.90;;;2.55;;
36359;SDS011;22388;52.432;20.662;2023-05-18T00:27:11;13.38;;;2.42;;
36359;SDS011;22388;52.432;20.662;2023-05-18T00:30:36;13.43;;;3.03;;
36359;SDS011;22388;52.432;20.662;2023-05-18T00:34:03;19.77;;;2.28;;
36359;SDS011;22388;52.432;20.662;2023-05-18T00:37:28;15.85;;;2.22;;
36359;SDS011;22388;52.432;20.662;2023-05-18T00:40:52;13.88;;;2.28;;
36359;SDS011;22388;52.432;20.662;2023-05-18T00:44:16;14.15;;;2.25;;
36359;SDS011;22388;52.432;20.662;2023-05-18T00:47:40;15.02;;;2.65;;
36359;SDS011;22388;52.432;20.662;2023-05-18T00:51:04;16.90;;;2.25;;
36359;SDS011;22388;52.432;20.662;2023-05-18T00:54:29;9.45;;;1.92;;
36359;SDS011;22388;52.432;20.662;2023-05-18T00:57:53;13.82;;;2.33;;
36359;SDS011;22388;52.432;20.662;2023-05-18T01:01:39;13.98;;;2.10;;
36359;SDS011;22388;52.432;20.662;2023-05-18T01:05:09;16.95;;;2.65;;
36359;SDS011;22388;52.432;20.662;2023-05-18T01:08:34;11.15;;;2.22;;
36359;SDS011;22388;52.432;20.662;2023-05-18T01:12:02;16.50;;;2.80;;
36359;SDS011;22388;52.432;20.662;2023-05-18T01:15:31;14.80;;;2.40;;
36359;SDS011;22388;52.432;20.662;2023-05-18T01:19:24;25.35;;;3.83;;
36359;SDS011;22388;52.432;20.662;2023-05-18T01:26:21;15.85;;;3.30;;
36359;SDS011;22388;52.432;20.662;2023-05-18T01:29:45;16.60;;;2.83;;
36359;SDS011;22388;52.432;20.662;2023-05-18T01:33:11;14.13;;;2.72;;
36359;SDS011;22388;52.432;20.662;2023-05-18T01:36:35;11.95;;;3.10;;
36359;SDS011;22388;52.432;20.662;2023-05-18T01:39:59;12.13;;;2.40;;
36359;SDS011;22388;52.432;20.662;2023-05-18T01:43:36;17.63;;;3.13;;
36359;SDS011;22388;52.432;20.662;2023-05-18T01:47:18;15.80;;;2.60;;
36359;SDS011;22388;52.432;20.662;2023-05-18T01:50:43;14.90;;;2.60;;
36359;SDS011;22388;52.432;20.662;2023-05-18T01:54:09;15.30;;;2.55;;
36359;SDS011;22388;52.432;20.662;2023-05-18T01:57:34;13.77;;;2.55;;
36359;SDS011;22388;52.432;20.662;2023-05-18T02:01:00;15.38;;;2.40;;
36359;SDS011;22388;52.432;20.662;2023-05-18T02:04:25;12.95;;;2.83;;
36359;SDS011;22388;52.432;20.662;2023-05-18T02:07:50;15.13;;;2.72;;
36359;SDS011;22388;52.432;20.662;2023-05-18T02:11:15;17.33;;;3.00;;
36359;SDS011;22388;52.432;20.662;2023-05-18T02:14:39;10.98;;;3.08;;
36359;SDS011;22388;52.432;20.662;2023-05-18T02:18:03;11.07;;;2.80;;
36359;SDS011;22388;52.432;20.662;2023-05-18T02:21:28;14.52;;;2.83;;
36359;SDS011;22388;52.432;20.662;2023-05-18T02:24:52;11.48;;;2.03;;
36359;SDS011;22388;52.432;20.662;2023-05-18T02:28:21;9.77;;;2.72;;
36359;SDS011;22388;52.432;20.662;2023-05-18T02:31:46;12.52;;;2.42;;
36359;SDS011;22388;52.432;20.662;2023-05-18T02:35:13;13.70;;;2.40;;
36359;SDS011;22388;52.432;20.662;2023-05-18T02:38:39;16.40;;;3.50;;
36359;SDS011;22388;52.432;20.662;2023-05-18T02:42:04;21.33;;;3.00;;
36359;SDS011;22388;52.432;20.662;2023-05-18T02:45:30;19.63;;;2.42;;
36359;SDS011;22388;52.432;20.662;2023-05-18T02:48:55;14.77;;;2.83;;
36359;SDS011;22388;52.432;20.662;2023-05-18T02:52:19;9.07;;;2.63;;
36359;SDS011;22388;52.432;20.662;2023-05-18T02:55:45;14.73;;;2.50;;
36359;SDS011;22388;52.432;20.662;2023-05-18T02:59:09;19.70;;;3.13;;
36359;SDS011;22388;52.432;20.662;2023-05-18T03:02:36;15.40;;;3.40;;
36359;SDS011;22388;52.432;20.662;2023-05-18T03:06:00;16.60;;;3.28;;
36359;SDS011;22388;52.432;20.662;2023-05-18T03:09:27;12.60;;;2.58;;
36359;SDS011;22388;52.432;20.662;2023-05-18T03:12:51;13.23;;;2.70;;
36359;SDS011;22388;52.432;20.662;2023-05-18T03:16:15;13.27;;;2.60;;
36359;SDS011;22388;52.432;20.662;2023-05-18T03:19:39;13.27;;;2.83;;
36359;SDS011;22388;52.432;20.662;2023-05-18T03:23:04;13.13;;;3.00;;
36359;SDS011;22388;52.432;20.662;2023-05-18T03:26:28;13.20;;;2.97;;
36359;SDS011;22388;52.432;20.662;2023-05-18T03:29:52;15.18;;;3.15;;
36359;SDS011;22388;52.432;20.662;2023-05-18T03:33:16;10.18;;;2.83;;
36359;SDS011;22388;52.432;20.662;2023-05-18T03:36:40;11.68;;;2.80;;
36359;SDS011;22388;52.432;20.662;2023-05-18T03:40:12;14.40;;;3.00;;
36359;SDS011;22388;52.432;20.662;2023-05-18T03:43:36;15.10;;;3.30;;
36359;SDS011;22388;52.432;20.662;2023-05-18T03:47:00;18.10;;;3.28;;
36359;SDS011;22388;52.432;20.662;2023-05-18T03:50:25;9.75;;;2.20;;
36359;SDS011;22388;52.432;20.662;2023-05-18T03:53:53;16.95;;;3.10;;
36359;SDS011;22388;52.432;20.662;2023-05-18T03:57:17;17.20;;;4.47;;
36359;SDS011;22388;52.432;20.662;2023-05-18T04:00:44;13.93;;;3.13;;
36359;SDS011;22388;52.432;20.662;2023-05-18T04:04:08;14.07;;;3.42;;
36359;SDS011;22388;52.432;20.662;2023-05-18T04:07:33;15.40;;;2.90;;
36359;SDS011;22388;52.432;20.662;2023-05-18T04:10:58;10.40;;;2.78;;
36359;SDS011;22388;52.432;20.662;2023-05-18T04:14:22;15.75;;;2.80;;
36359;SDS011;22388;52.432;20.662;2023-05-18T04:17:48;10.82;;;3.05;;
36359;SDS011;22388;52.432;20.662;2023-05-18T04:21:12;14.60;;;2.58;;
36359;SDS011;22388;52.432;20.662;2023-05-18T04:24:37;15.73;;;2.95;;
36359;SDS011;22388;52.432;20.662;2023-05-18T04:28:03;13.75;;;2.75;;
36359;SDS011;22388;52.432;20.662;2023-05-18T04:31:28;13.73;;;2.67;;
36359;SDS011;22388;52.432;20.662;2023-05-18T04:34:55;10.35;;;2.30;;
36359;SDS011;22388;52.432;20.662;2023-05-18T04:38:20;15.40;;;2.78;;
36359;SDS011;22388;52.432;20.662;2023-05-18T04:41:48;12.15;;;3.08;;
36359;SDS011;22388;52.432;20.662;2023-05-18T04:45:15;11.82;;;3.47;;
36359;SDS011;22388;52.432;20.662;2023-05-18T04:48:41;16.42;;;2.92;;
36359;SDS011;22388;52.432;20.662;2023-05-18T04:52:05;10.60;;;2.40;;
36359;SDS011;22388;52.432;20.662;2023-05-18T04:55:32;16.30;;;2.95;;
36359;SDS011;22388;52.432;20.662;2023-05-18T04:58:56;12.48;;;2.67;;
36359;SDS011;22388;52.432;20.662;2023-05-18T05:02:20;15.90;;;2.58;;
36359;SDS011;22388;52.432;20.662;2023-05-18T05:05:44;15.75;;;2.90;;
36359;SDS011;22388;52.432;20.662;2023-05-18T05:09:08;14.45;;;3.00;;
36359;SDS011;22388;52.432;20.662;2023-05-18T05:12:34;14.75;;;3.13;;
36359;SDS011;22388;52.432;20.662;2023-05-18T05:16:00;11.85;;;2.55;;
36359;SDS011;22388;52.432;20.662;2023-05-18T05:19:24;14.77;;;2.70;;
36359;SDS011;22388;52.432;20.662;2023-05-18T05:22:48;13.98;;;2.45;;
36359;SDS011;22388;52.432;20.662;2023-05-18T05:26:12;8.85;;;2.28;;
36359;SDS011;22388;52.432;20.662;2023-05-18T05:29:37;16.30;;;2.85;;
36359;SDS011;22388;52.432;20.662;2023-05-18T05:33:01;12.57;;;2.10;;
36359;SDS011;22388;52.432;20.662;2023-05-18T05:36:25;11.27;;;2.13;;
36359;SDS011;22388;52.432;20.662;2023-05-18T05:39:49;10.90;;;2.75;;
36359;SDS011;22388;52.432;20.662;2023-05-18T05:43:13;10.02;;;2.10;;
36359;SDS011;22388;52.432;20.662;2023-05-18T05:46:37;9.80;;;2.45;;
36359;SDS011;22388;52.432;20.662;2023-05-18T05:50:01;7.43;;;1.80;;
36359;SDS011;22388;52.432;20.662;2023-05-18T05:53:26;9.23;;;2.17;;
36359;SDS011;22388;52.432;20.662;2023-05-18T05:56:50;8.77;;;2.35;;
36359;SDS011;22388;52.432;20.662;2023-05-18T06:00:14;9.57;;;2.47;;
36359;SDS011;22388;52.432;20.662;2023-05-18T06:03:38;9.35;;;1.70;;
36359;SDS011;22388;52.432;20.662;2023-05-18T06:07:02;8.27;;;1.80;;
36359;SDS011;22388;52.432;20.662;2023-05-18T06:10:26;8.60;;;1.67;;
36359;SDS011;22388;52.432;20.662;2023-05-18T06:13:51;10.82;;;1.95;;
36359;SDS011;22388;52.432;20.662;2023-05-18T06:17:21;9.50;;;1.60;;
36359;SDS011;22388;52.432;20.662;2023-05-18T06:20:45;7.05;;;1.30;;
36359;SDS011;22388;52.432;20.662;2023-05-18T06:24:09;7.32;;;1.35;;
36359;SDS011;22388;52.432;20.662;2023-05-18T06:27:34;5.53;;;1.20;;
36359;SDS011;22388;52.432;20.662;2023-05-18T06:30:58;4.65;;;1.10;;
36359;SDS011;22388;52.432;20.662;2023-05-18T06:34:22;6.97;;;1.40;;
36359;SDS011;22388;52.432;20.662;2023-05-18T06:37:48;6.65;;;1.20;;
36359;SDS011;22388;52.432;20.662;2023-05-18T06:41:12;7.57;;;1.23;;
36359;SDS011;22388;52.432;20.662;2023-05-18T06:44:36;5.00;;;1.00;;
36359;SDS011;22388;52.432;20.662;2023-05-18T06:48:00;3.60;;;1.00;;
36359;SDS011;22388;52.432;20.662;2023-05-18T06:51:25;2.72;;;0.93;;
36359;SDS011;22388;52.432;20.662;2023-05-18T06:54:49;1.88;;;0.60;;
36359;SDS011;22388;52.432;20.662;2023-05-18T06:58:13;2.65;;;0.57;;
36359;SDS011;22388;52.432;20.662;2023-05-18T07:01:37;2.60;;;0.85;;
36359;SDS011;22388;52.432;20.662;2023-05-18T07:05:01;5.97;;;0.70;;
36359;SDS011;22388;52.432;20.662;2023-05-18T07:08:26;7.20;;;0.75;;
36359;SDS011;22388;52.432;20.662;2023-05-18T07:11:50;5.13;;;0.90;;
36359;SDS011;22388;52.432;20.662;2023-05-18T07:15:14;4.18;;;1.00;;
36359;SDS011;22388;52.432;20.662;2023-05-18T07:18:38;5.60;;;1.42;;
36359;SDS011;22388;52.432;20.662;2023-05-18T07:22:02;4.72;;;1.00;;
36359;SDS011;22388;52.432;20.662;2023-05-18T07:25:27;3.65;;;1.00;;
36359;SDS011;22388;52.432;20.662;2023-05-18T07:28:51;5.28;;;0.90;;
36359;SDS011;22388;52.432;20.662;2023-05-18T07:32:15;4.30;;;0.90;;
36359;SDS011;22388;52.432;20.662;2023-05-18T07:35:39;6.05;;;1.00;;
36359;SDS011;22388;52.432;20.662;2023-05-18T07:39:03;8.75;;;1.00;;
36359;SDS011;22388;52.432;20.662;2023-05-18T07:42:28;3.78;;;1.10;;
36359;SDS011;22388;52.432;20.662;2023-05-18T07:45:52;4.10;;;1.30;;
36359;SDS011;22388;52.432;20.662;2023-05-18T07:49:16;4.47;;;0.98;;
36359;SDS011;22388;52.432;20.662;2023-05-18T07:52:40;3.25;;;0.90;;
36359;SDS011;22388;52.432;20.662;2023-05-18T07:56:05;6.68;;;1.23;;
36359;SDS011;22388;52.432;20.662;2023-05-18T07:59:30;2.67;;;1.15;;
36359;SDS011;22388;52.432;20.662;2023-05-18T08:02:55;7.22;;;1.08;;
36359;SDS011;22388;52.432;20.662;2023-05-18T08:06:19;4.97;;;1.02;;
36359;SDS011;22388;52.432;20.662;2023-05-18T08:09:43;7.20;;;0.80;;
36359;SDS011;22388;52.432;20.662;2023-05-18T08:13:07;3.60;;;0.73;;
36359;SDS011;22388;52.432;20.662;2023-05-18T08:16:31;4.82;;;1.00;;
36359;SDS011;22388;52.432;20.662;2023-05-18T08:19:55;2.80;;;0.93;;
36359;SDS011;22388;52.432;20.662;2023-05-18T08:23:20;6.53;;;1.20;;
36359;SDS011;22388;52.432;20.662;2023-05-18T08:26:44;3.13;;;0.90;;
36359;SDS011;22388;52.432;20.662;2023-05-18T08:30:08;6.40;;;0.95;;
36359;SDS011;22388;52.432;20.662;2023-05-18T08:33:32;1.77;;;0.80;;
36359;SDS011;22388;52.432;20.662;2023-05-18T08:36:56;7.15;;;1.20;;
36359;SDS011;22388;52.432;20.662;2023-05-18T08:40:21;4.28;;;1.08;;
36359;SDS011;22388;52.432;20.662;2023-05-18T08:43:48;4.35;;;0.82;;
36359;SDS011;22388;52.432;20.662;2023-05-18T08:47:27;3.65;;;0.70;;
36359;SDS011;22388;52.432;20.662;2023-05-18T08:50:53;2.70;;;0.73;;
36359;SDS011;22388;52.432;20.662;2023-05-18T08:54:20;5.85;;;0.77;;
36359;SDS011;22388;52.432;20.662;2023-05-18T08:57:45;3.28;;;1.00;;
36359;SDS011;22388;52.432;20.662;2023-05-18T09:01:11;3.92;;;1.30;;
36359;SDS011;22388;52.432;20.662;2023-05-18T09:04:36;3.13;;;0.80;;
36359;SDS011;22388;52.432;20.662;2023-05-18T09:08:01;6.20;;;0.73;;
36359;SDS011;22388;52.432;20.662;2023-05-18T09:11:28;8.23;;;0.98;;
36359;SDS011;22388;52.432;20.662;2023-05-18T09:14:53;5.00;;;0.68;;
36359;SDS011;22388;52.432;20.662;2023-05-18T09:18:18;2.45;;;1.10;;
36359;SDS011;22388;52.432;20.662;2023-05-18T09:21:42;14.07;;;1.48;;
36359;SDS011;22388;52.432;20.662;2023-05-18T09:25:09;3.65;;;0.85;;
36359;SDS011;22388;52.432;20.662;2023-05-18T09:28:40;3.88;;;1.13;;
36359;SDS011;22388;52.432;20.662;2023-05-18T09:32:21;11.13;;;1.13;;
36359;SDS011;22388;52.432;20.662;2023-05-18T09:35:50;5.30;;;0.80;;
36359;SDS011;22388;52.432;20.662;2023-05-18T09:39:17;3.95;;;1.00;;
36359;SDS011;22388;52.432;20.662;2023-05-18T09:42:43;2.17;;;0.75;;
36359;SDS011;22388;52.432;20.662;2023-05-18T09:46:09;5.35;;;1.00;;
36359;SDS011;22388;52.432;20.662;2023-05-18T09:49:34;4.65;;;0.80;;
36359;SDS011;22388;52.432;20.662;2023-05-18T09:52:59;3.67;;;0.70;;
36359;SDS011;22388;52.432;20.662;2023-05-18T09:56:23;3.40;;;0.70;;
36359;SDS011;22388;52.432;20.662;2023-05-18T09:59:54;4.22;;;0.80;;
36359;SDS011;22388;52.432;20.662;2023-05-18T10:03:21;5.07;;;0.95;;
36359;SDS011;22388;52.432;20.662;2023-05-18T10:06:49;3.17;;;1.13;;
36359;SDS011;22388;52.432;20.662;2023-05-18T10:10:18;3.50;;;0.80;;
36359;SDS011;22388;52.432;20.662;2023-05-18T10:13:44;4.95;;;0.93;;
36359;SDS011;22388;52.432;20.662;2023-05-18T10:17:12;2.30;;;0.70;;
36359;SDS011;22388;52.432;20.662;2023-05-18T10:20:36;4.65;;;1.20;;
36359;SDS011;22388;52.432;20.662;2023-05-18T10:24:01;4.78;;;0.95;;
36359;SDS011;22388;52.432;20.662;2023-05-18T10:27:30;3.03;;;0.77;;
36359;SDS011;22388;52.432;20.662;2023-05-18T10:30:58;5.20;;;0.60;;
36359;SDS011;22388;52.432;20.662;2023-05-18T10:34:27;4.25;;;1.00;;
36359;SDS011;22388;52.432;20.662;2023-05-18T10:37:52;4.00;;;0.75;;
36359;SDS011;22388;52.432;20.662;2023-05-18T10:41:17;3.78;;;0.90;;
36359;SDS011;22388;52.432;20.662;2023-05-18T10:44:43;4.22;;;0.82;;
36359;SDS011;22388;52.432;20.662;2023-05-18T10:48:08;1.80;;;0.70;;
36359;SDS011;22388;52.432;20.662;2023-05-18T10:51:37;3.38;;;1.10;;
36359;SDS011;22388;52.432;20.662;2023-05-18T10:55:04;2.75;;;0.90;;
36359;SDS011;22388;52.432;20.662;2023-05-18T10:58:29;3.55;;;1.10;;
36359;SDS011;22388;52.432;20.662;2023-05-18T11:01:53;4.10;;;0.90;;
36359;SDS011;22388;52.432;20.662;2023-05-18T11:05:22;5.22;;;0.93;;
36359;SDS011;22388;52.432;20.662;2023-05-18T11:08:48;2.30;;;0.95;;
36359;SDS011;22388;52.432;20.662;2023-05-18T11:12:13;4.93;;;0.93;;
36359;SDS011;22388;52.432;20.662;2023-05-18T11:19:14;4.07;;;0.82;;
36359;SDS011;22388;52.432;20.662;2023-05-18T11:26:29;4.22;;;1.05;;
36359;SDS011;22388;52.432;20.662;2023-05-18T11:29:53;18.33;;;2.00;;
36359;SDS011;22388;52.432;20.662;2023-05-18T11:33:27;4.60;;;1.10;;
36359;SDS011;22388;52.432;20.662;2023-05-18T11:37:01;3.05;;;0.90;;
36359;SDS011;22388;52.432;20.662;2023-05-18T11:40:45;8.30;;;1.20;;
36359;SDS011;22388;52.432;20.662;2023-05-18T11:47:36;5.90;;;1.08;;
36359;SDS011;22388;52.432;20.662;2023-05-18T11:51:01;9.27;;;1.30;;
36359;SDS011;22388;52.432;20.662;2023-05-18T11:54:44;4.35;;;0.80;;
36359;SDS011;22388;52.432;20.662;2023-05-18T11:58:10;3.15;;;0.90;;
36359;SDS011;22388;52.432;20.662;2023-05-18T12:01:36;3.03;;;1.00;;
36359;SDS011;22388;52.432;20.662;2023-05-18T12:05:01;2.53;;;0.93;;
36359;SDS011;22388;52.432;20.662;2023-05-18T12:08:25;3.67;;;0.88;;
36359;SDS011;22388;52.432;20.662;2023-05-18T12:11:50;1.83;;;0.68;;
36359;SDS011;22388;52.432;20.662;2023-05-18T12:15:20;6.72;;;0.77;;
36359;SDS011;22388;52.432;20.662;2023-05-18T12:18:48;4.78;;;1.08;;
36359;SDS011;22388;52.432;20.662;2023-05-18T12:22:13;4.43;;;0.90;;
36359;SDS011;22388;52.432;20.662;2023-05-18T12:25:38;8.63;;;0.80;;
36359;SDS011;22388;52.432;20.662;2023-05-18T12:29:02;2.42;;;0.90;;
36359;SDS011;22388;52.432;20.662;2023-05-18T12:32:28;5.68;;;1.08;;
36359;SDS011;22388;52.432;20.662;2023-05-18T12:35:53;2.92;;;0.80;;
36359;SDS011;22388;52.432;20.662;2023-05-18T12:39:18;3.33;;;0.70;;
36359;SDS011;22388;52.432;20.662;2023-05-18T12:42:55;3.97;;;0.90;;
36359;SDS011;22388;52.432;20.662;2023-05-18T12:46:20;7.07;;;1.13;;
36359;SDS011;22388;52.432;20.662;2023-05-18T12:49:47;3.88;;;0.68;;
36359;SDS011;22388;52.432;20.662;2023-05-18T12:53:12;4.55;;;0.90;;
36359;SDS011;22388;52.432;20.662;2023-05-18T13:00:32;2.42;;;0.85;;
36359;SDS011;22388;52.432;20.662;2023-05-18T13:04:09;4.32;;;1.02;;
36359;SDS011;22388;52.432;20.662;2023-05-18T13:07:35;3.10;;;0.60;;
36359;SDS011;22388;52.432;20.662;2023-05-18T13:11:00;3.97;;;0.85;;
36359;SDS011;22388;52.432;20.662;2023-05-18T13:14:25;1.50;;;0.60;;
36359;SDS011;22388;52.432;20.662;2023-05-18T13:18:03;1.55;;;0.60;;
36359;SDS011;22388;52.432;20.662;2023-05-18T13:21:28;3.13;;;0.60;;
36359;SDS011;22388;52.432;20.662;2023-05-18T13:24:53;3.90;;;0.82;;
36359;SDS011;22388;52.432;20.662;2023-05-18T13:28:18;3.40;;;0.68;;
36359;SDS011;22388;52.432;20.662;2023-05-18T13:31:42;1.50;;;0.75;;
36359;SDS011;22388;52.432;20.662;2023-05-18T13:35:06;4.47;;;0.68;;
36359;SDS011;22388;52.432;20.662;2023-05-18T13:38:30;2.28;;;0.50;;
36359;SDS011;22388;52.432;20.662;2023-05-18T13:41:54;12.10;;;1.40;;
36359;SDS011;22388;52.432;20.662;2023-05-18T13:45:18;2.63;;;0.70;;
36359;SDS011;22388;52.432;20.662;2023-05-18T13:48:43;1.77;;;0.60;;
36359;SDS011;22388;52.432;20.662;2023-05-18T13:52:08;2.97;;;0.70;;
36359;SDS011;22388;52.432;20.662;2023-05-18T13:55:32;1.08;;;0.63;;
36359;SDS011;22388;52.432;20.662;2023-05-18T13:58:56;3.70;;;0.70;;
36359;SDS011;22388;52.432;20.662;2023-05-18T14:02:22;2.47;;;0.85;;
36359;SDS011;22388;52.432;20.662;2023-05-18T14:05:48;3.42;;;1.20;;
36359;SDS011;22388;52.432;20.662;2023-05-18T14:09:12;7.25;;;0.80;;
36359;SDS011;22388;52.432;20.662;2023-05-18T14:12:37;5.28;;;1.10;;
36359;SDS011;22388;52.432;20.662;2023-05-18T14:16:02;4.45;;;0.88;;
36359;SDS011;22388;52.432;20.662;2023-05-18T14:19:27;7.05;;;1.20;;
36359;SDS011;22388;52.432;20.662;2023-05-18T14:22:51;5.60;;;1.20;;
36359;SDS011;22388;52.432;20.662;2023-05-18T14:26:16;7.03;;;1.35;;
36359;SDS011;22388;52.432;20.662;2023-05-18T14:29:40;4.28;;;1.00;;
36359;SDS011;22388;52.432;20.662;2023-05-18T14:33:04;5.75;;;1.10;;
36359;SDS011;22388;52.432;20.662;2023-05-18T14:36:28;6.47;;;1.35;;
36359;SDS011;22388;52.432;20.662;2023-05-18T14:39:52;2.25;;;1.20;;
36359;SDS011;22388;52.432;20.662;2023-05-18T14:43:17;3.15;;;1.10;;
36359;SDS011;22388;52.432;20.662;2023-05-18T14:46:41;5.60;;;1.30;;
36359;SDS011;22388;52.432;20.662;2023-05-18T14:50:05;1.35;;;0.80;;
36359;SDS011;22388;52.432;20.662;2023-05-18T14:53:29;2.20;;;0.90;;
36359;SDS011;22388;52.432;20.662;2023-05-18T14:56:53;4.15;;;0.68;;
36359;SDS011;22388;52.432;20.662;2023-05-18T15:00:18;1.80;;;0.80;;
36359;SDS011;22388;52.432;20.662;2023-05-18T15:03:42;2.17;;;0.90;;
36359;SDS011;22388;52.432;20.662;2023-05-18T15:07:07;3.80;;;0.95;;
36359;SDS011;22388;52.432;20.662;2023-05-18T15:10:31;1.95;;;0.80;;
36359;SDS011;22388;52.432;20.662;2023-05-18T15:13:55;3.80;;;0.85;;
36359;SDS011;22388;52.432;20.662;2023-05-18T15:17:20;3.33;;;1.35;;
36359;SDS011;22388;52.432;20.662;2023-05-18T15:20:44;3.95;;;0.95;;
36359;SDS011;22388;52.432;20.662;2023-05-18T15:24:09;8.57;;;1.98;;
36359;SDS011;22388;52.432;20.662;2023-05-18T15:27:33;1.98;;;0.82;;
36359;SDS011;22388;52.432;20.662;2023-05-18T15:30:57;3.10;;;0.80;;
36359;SDS011;22388;52.432;20.662;2023-05-18T15:34:21;4.10;;;1.00;;
36359;SDS011;22388;52.432;20.662;2023-05-18T15:37:46;2.08;;;0.98;;
36359;SDS011;22388;52.432;20.662;2023-05-18T15:41:10;2.88;;;0.80;;
36359;SDS011;22388;52.432;20.662;2023-05-18T15:44:35;1.20;;;0.65;;
36359;SDS011;22388;52.432;20.662;2023-05-18T15:47:59;4.43;;;0.98;;
36359;SDS011;22388;52.432;20.662;2023-05-18T15:51:24;6.30;;;0.75;;
36359;SDS011;22388;52.432;20.662;2023-05-18T15:54:49;3.42;;;0.88;;
36359;SDS011;22388;52.432;20.662;2023-05-18T15:58:15;2.80;;;0.80;;
36359;SDS011;22388;52.432;20.662;2023-05-18T16:01:40;3.50;;;0.90;;
36359;SDS011;22388;52.432;20.662;2023-05-18T16:05:05;5.85;;;1.00;;
36359;SDS011;22388;52.432;20.662;2023-05-18T16:08:29;3.00;;;0.90;;
36359;SDS011;22388;52.432;20.662;2023-05-18T16:11:54;5.20;;;1.05;;
36359;SDS011;22388;52.432;20.662;2023-05-18T16:15:18;2.15;;;0.93;;
36359;SDS011;22388;52.432;20.662;2023-05-18T16:18:43;3.33;;;1.13;;
36359;SDS011;22388;52.432;20.662;2023-05-18T16:22:08;1.67;;;0.80;;
36359;SDS011;22388;52.432;20.662;2023-05-18T16:25:33;3.10;;;0.93;;
36359;SDS011;22388;52.432;20.662;2023-05-18T16:28:58;5.45;;;1.00;;
36359;SDS011;22388;52.432;20.662;2023-05-18T16:32:22;2.28;;;0.85;;
36359;SDS011;22388;52.432;20.662;2023-05-18T16:35:47;1.92;;;1.00;;
36359;SDS011;22388;52.432;20.662;2023-05-18T16:39:11;2.03;;;0.90;;
36359;SDS011;22388;52.432;20.662;2023-05-18T16:42:35;2.63;;;1.15;;
36359;SDS011;22388;52.432;20.662;2023-05-18T16:46:00;5.35;;;0.98;;
36359;SDS011;22388;52.432;20.662;2023-05-18T16:49:24;3.42;;;1.20;;
36359;SDS011;22388;52.432;20.662;2023-05-18T16:52:48;3.80;;;1.20;;
36359;SDS011;22388;52.432;20.662;2023-05-18T16:56:12;4.47;;;1.25;;
36359;SDS011;22388;52.432;20.662;2023-05-18T16:59:37;2.60;;;1.25;;
36359;SDS011;22388;52.432;20.662;2023-05-18T17:03:01;5.40;;;1.33;;
36359;SDS011;22388;52.432;20.662;2023-05-18T17:06:25;5.32;;;1.63;;
36359;SDS011;22388;52.432;20.662;2023-05-18T17:09:50;2.40;;;1.20;;
36359;SDS011;22388;52.432;20.662;2023-05-18T17:13:14;2.83;;;1.15;;
36359;SDS011;22388;52.432;20.662;2023-05-18T17:16:39;5.35;;;1.20;;
36359;SDS011;22388;52.432;20.662;2023-05-18T17:20:04;2.55;;;1.08;;
36359;SDS011;22388;52.432;20.662;2023-05-18T17:23:28;2.28;;;1.00;;
36359;SDS011;22388;52.432;20.662;2023-05-18T17:26:52;2.45;;;1.20;;
36359;SDS011;22388;52.432;20.662;2023-05-18T17:30:16;3.50;;;1.52;;
36359;SDS011;22388;52.432;20.662;2023-05-18T17:33:42;2.15;;;1.10;;
36359;SDS011;22388;52.432;20.662;2023-05-18T17:37:06;1.88;;;1.08;;
36359;SDS011;22388;52.432;20.662;2023-05-18T17:40:31;2.08;;;0.93;;
36359;SDS011;22388;52.432;20.662;2023-05-18T17:43:56;4.78;;;1.05;;
36359;SDS011;22388;52.432;20.662;2023-05-18T17:47:20;2.75;;;1.20;;
36359;SDS011;22388;52.432;20.662;2023-05-18T17:50:44;3.85;;;1.20;;
36359;SDS011;22388;52.432;20.662;2023-05-18T17:54:08;3.75;;;1.23;;
36359;SDS011;22388;52.432;20.662;2023-05-18T17:57:33;4.00;;;1.30;;
36359;SDS011;22388;52.432;20.662;2023-05-18T18:00:57;5.05;;;1.50;;
36359;SDS011;22388;52.432;20.662;2023-05-18T18:04:21;5.10;;;1.35;;
36359;SDS011;22388;52.432;20.662;2023-05-18T18:07:45;2.92;;;1.30;;
36359;SDS011;22388;52.432;20.662;2023-05-18T18:11:09;4.10;;;1.30;;
36359;SDS011;22388;52.432;20.662;2023-05-18T18:14:34;12.65;;;2.03;;
36359;SDS011;22388;52.432;20.662;2023-05-18T18:17:58;4.22;;;1.70;;
36359;SDS011;22388;52.432;20.662;2023-05-18T18:21:23;1.70;;;1.23;;
36359;SDS011;22388;52.432;20.662;2023-05-18T18:24:47;7.80;;;1.80;;
36359;SDS011;22388;52.432;20.662;2023-05-18T18:28:11;5.15;;;1.80;;
36359;SDS011;22388;52.432;20.662;2023-05-18T18:31:35;3.92;;;1.80;;
36359;SDS011;22388;52.432;20.662;2023-05-18T18:35:00;4.53;;;2.00;;
36359;SDS011;22388;52.432;20.662;2023-05-18T18:38:24;6.43;;;2.40;;
36359;SDS011;22388;52.432;20.662;2023-05-18T18:41:49;8.52;;;2.85;;
36359;SDS011;22388;52.432;20.662;2023-05-18T18:45:13;11.10;;;3.45;;
36359;SDS011;22388;52.432;20.662;2023-05-18T18:48:37;11.73;;;4.40;;
36359;SDS011;22388;52.432;20.662;2023-05-18T18:52:01;10.00;;;3.55;;
36359;SDS011;22388;52.432;20.662;2023-05-18T18:55:25;12.02;;;4.10;;
36359;SDS011;22388;52.432;20.662;2023-05-18T18:58:51;8.40;;;3.22;;
36359;SDS011;22388;52.432;20.662;2023-05-18T19:02:15;8.35;;;3.10;;
36359;SDS011;22388;52.432;20.662;2023-05-18T19:05:40;7.45;;;3.17;;
36359;SDS011;22388;52.432;20.662;2023-05-18T19:09:04;6.82;;;2.83;;
36359;SDS011;22388;52.432;20.662;2023-05-18T19:12:29;6.93;;;3.05;;
36359;SDS011;22388;52.432;20.662;2023-05-18T19:15:53;8.75;;;3.50;;
36359;SDS011;22388;52.432;20.662;2023-05-18T19:19:17;9.50;;;3.67;;
36359;SDS011;22388;52.432;20.662;2023-05-18T19:22:41;9.10;;;3.45;;
36359;SDS011;22388;52.432;20.662;2023-05-18T19:26:05;7.35;;;3.50;;
36359;SDS011;22388;52.432;20.662;2023-05-18T19:29:32;8.15;;;3.53;;
36359;SDS011;22388;52.432;20.662;2023-05-18T19:32:56;8.32;;;3.40;;
36359;SDS011;22388;52.432;20.662;2023-05-18T19:36:20;6.90;;;3.17;;
36359;SDS011;22388;52.432;20.662;2023-05-18T19:39:45;8.07;;;3.00;;
36359;SDS011;22388;52.432;20.662;2023-05-18T19:43:09;9.38;;;2.88;;
36359;SDS011;22388;52.432;20.662;2023-05-18T19:46:33;7.40;;;2.85;;
36359;SDS011;22388;52.432;20.662;2023-05-18T19:49:57;6.78;;;2.92;;
36359;SDS011;22388;52.432;20.662;2023-05-18T19:53:21;7.15;;;3.30;;
36359;SDS011;22388;52.432;20.662;2023-05-18T19:56:46;6.90;;;3.17;;
36359;SDS011;22388;52.432;20.662;2023-05-18T20:00:10;9.27;;;3.58;;
36359;SDS011;22388;52.432;20.662;2023-05-18T20:03:36;5.93;;;3.08;;
36359;SDS011;22388;52.432;20.662;2023-05-18T20:07:01;9.00;;;3.15;;
36359;SDS011;22388;52.432;20.662;2023-05-18T20:10:27;7.18;;;3.28;;
36359;SDS011;22388;52.432;20.662;2023-05-18T20:13:51;10.48;;;3.17;;
36359;SDS011;22388;52.432;20.662;2023-05-18T20:17:16;9.50;;;3.85;;
36359;SDS011;22388;52.432;20.662;2023-05-18T20:20:40;8.30;;;3.63;;
36359;SDS011;22388;52.432;20.662;2023-05-18T20:24:05;7.07;;;3.10;;
36359;SDS011;22388;52.432;20.662;2023-05-18T20:27:30;8.52;;;3.72;;
36359;SDS011;22388;52.432;20.662;2023-05-18T20:30:55;10.02;;;3.90;;
36359;SDS011;22388;52.432;20.662;2023-05-18T20:34:19;9.82;;;3.70;;